createdAt,value
2019-01-23T00:00:25.709Z,53.60
2019-01-23T00:02:54.137Z,56.93
2019-01-23T00:05:22.559Z,49.53
2019-01-23T00:07:51.002Z,45.80
2019-01-23T00:10:19.405Z,47.90
2019-01-23T00:12:47.848Z,43.73
2019-01-23T00:15:16.254Z,44.77
2019-01-23T00:17:44.694Z,46.33
2019-01-23T00:20:13.250Z,48.47
2019-01-23T00:22:41.658Z,53.90
2019-01-23T00:25:10.736Z,50.67
2019-01-23T00:27:39.141Z,54.90
2019-01-23T00:30:10.709Z,45.17
2019-01-23T00:32:39.130Z,53.80
2019-01-23T00:35:08.024Z,51.60
2019-01-23T00:37:36.436Z,45.50
2019-01-23T00:40:16.286Z,44.10
2019-01-23T00:42:44.685Z,54.43
2019-01-23T00:45:15.544Z,48.07
2019-01-23T00:47:44.035Z,48.93
2019-01-23T00:50:14.096Z,52.87
2019-01-23T00:52:42.518Z,51.83
2019-01-23T00:55:16.152Z,54.77
2019-01-23T00:57:44.552Z,51.27
2019-01-23T01:00:18.966Z,49.00
2019-01-23T01:02:47.645Z,46.87
2019-01-23T01:05:16.607Z,50.60
2019-01-23T01:07:45.091Z,55.50
2019-01-23T01:10:16.478Z,49.60
2019-01-23T01:12:44.877Z,52.60
2019-01-23T01:15:13.859Z,52.90
2019-01-23T01:17:42.409Z,51.87
2019-01-23T01:20:15.448Z,52.03
2019-01-23T01:22:44.011Z,49.40
2019-01-23T01:25:15.077Z,53.83
2019-01-23T01:27:43.489Z,48.87
2019-01-23T01:30:17.725Z,56.10
2019-01-23T01:32:46.418Z,53.25
2019-01-23T01:35:14.854Z,53.17
2019-01-23T01:37:43.333Z,56.37
2019-01-23T01:40:14.123Z,50.57
2019-01-23T01:42:42.543Z,51.87
2019-01-23T01:45:12.397Z,52.70
2019-01-23T01:47:40.808Z,49.73
2019-01-23T01:50:12.343Z,53.07
2019-01-23T01:52:40.760Z,50.07
2019-01-23T01:55:10.040Z,50.53
2019-01-23T01:57:38.463Z,52.07
2019-01-23T02:00:09.960Z,51.30
2019-01-23T02:02:38.397Z,50.90
2019-01-23T02:05:07.557Z,48.93
2019-01-23T02:07:35.965Z,51.93
2019-01-23T02:10:07.839Z,47.37
2019-01-23T02:12:36.244Z,55.60
2019-01-23T02:15:07.614Z,58.90
2019-01-23T02:17:36.036Z,48.70
2019-01-23T02:20:07.536Z,50.83
2019-01-23T02:22:36.249Z,49.33
2019-01-23T02:25:06.317Z,50.83
2019-01-23T02:27:34.742Z,52.97
2019-01-23T02:30:04.522Z,49.87
2019-01-23T02:32:33.893Z,56.77
2019-01-23T02:35:02.335Z,57.10
2019-01-23T02:37:30.750Z,45.03
2019-01-23T02:39:59.194Z,55.00
2019-01-23T02:42:27.638Z,50.70
2019-01-23T02:44:56.065Z,52.63
2019-01-23T02:47:24.506Z,48.33
2019-01-23T02:49:52.949Z,42.08
2019-01-23T02:52:22.353Z,43.07
2019-01-23T02:54:50.795Z,45.20
2019-01-23T02:57:19.244Z,44.10
2019-01-23T02:59:47.669Z,44.87
2019-01-23T03:02:16.090Z,49.05
2019-01-23T03:04:44.529Z,51.37
2019-01-23T03:07:12.947Z,48.40
2019-01-23T03:09:41.460Z,50.83
2019-01-23T03:12:09.877Z,47.95
2019-01-23T03:14:38.295Z,54.50
2019-01-23T03:17:06.744Z,45.43
2019-01-23T03:19:35.633Z,46.55
2019-01-23T03:22:04.148Z,52.35
2019-01-23T03:24:32.580Z,45.50
2019-01-23T03:27:01.055Z,48.53
2019-01-23T03:29:29.514Z,45.70
2019-01-23T03:31:57.954Z,50.12
2019-01-23T03:34:26.368Z,50.65
2019-01-23T03:36:54.806Z,52.53
2019-01-23T03:39:23.229Z,52.93
2019-01-23T03:41:51.673Z,52.10
2019-01-23T03:44:20.093Z,48.83
2019-01-23T03:46:48.612Z,56.35
2019-01-23T03:49:17.033Z,54.73
2019-01-23T03:51:45.463Z,52.98
2019-01-23T03:54:13.905Z,62.55
2019-01-23T03:56:42.462Z,49.55
2019-01-23T03:59:10.902Z,46.45
2019-01-23T04:01:39.408Z,54.53
2019-01-23T04:04:07.996Z,52.10
2019-01-23T04:06:36.409Z,49.38
2019-01-23T04:09:06.987Z,49.15
2019-01-23T04:11:35.416Z,51.10
2019-01-23T04:14:04.118Z,45.63
2019-01-23T04:16:32.546Z,54.42
2019-01-23T04:19:00.994Z,56.68
2019-01-23T04:21:29.406Z,48.73
2019-01-23T04:23:57.851Z,53.17
2019-01-23T04:26:26.327Z,46.48
2019-01-23T04:28:54.792Z,54.42
2019-01-23T04:31:23.205Z,55.65
2019-01-23T04:33:51.641Z,52.03
2019-01-23T04:36:20.090Z,51.50
2019-01-23T04:38:48.544Z,54.48
2019-01-23T04:41:16.965Z,52.10
2019-01-23T04:43:45.725Z,54.45
2019-01-23T04:46:15.056Z,51.35
2019-01-23T04:48:43.492Z,58.90
2019-01-23T04:51:13.554Z,45.60
2019-01-23T04:53:43.639Z,53.58
2019-01-23T04:56:12.056Z,53.10
2019-01-23T04:58:40.510Z,54.08
2019-01-23T05:01:09.833Z,53.92
2019-01-23T05:03:38.265Z,50.33
2019-01-23T05:06:06.753Z,52.58
2019-01-23T05:08:35.208Z,51.33
2019-01-23T05:11:03.688Z,49.73
2019-01-23T05:13:33.073Z,55.10
2019-01-23T05:16:01.504Z,54.48
2019-01-23T05:18:29.947Z,55.92
2019-01-23T05:20:58.447Z,50.55
2019-01-23T05:23:26.895Z,56.13
2019-01-23T05:25:55.323Z,52.70
2019-01-23T05:28:23.756Z,47.95
2019-01-23T05:30:52.182Z,52.03
2019-01-23T05:33:20.636Z,62.05
2019-01-23T05:35:49.056Z,50.58
2019-01-23T05:38:17.514Z,49.83
2019-01-23T05:40:45.939Z,44.60
2019-01-23T05:43:14.370Z,50.78
2019-01-23T05:45:42.853Z,51.28
2019-01-23T05:48:11.289Z,49.95
2019-01-23T05:50:39.705Z,54.73
2019-01-23T05:53:08.178Z,52.30
2019-01-23T05:55:36.601Z,54.08
2019-01-23T05:58:05.081Z,55.30
2019-01-23T06:00:33.510Z,44.88
2019-01-23T06:03:01.931Z,52.08
2019-01-23T06:05:30.362Z,51.40
2019-01-23T06:07:58.777Z,51.37
2019-01-23T06:10:27.202Z,52.40
2019-01-23T06:12:55.628Z,53.30
2019-01-23T06:15:24.060Z,54.30
2019-01-23T06:17:52.499Z,54.40
2019-01-23T06:20:21.556Z,52.43
2019-01-23T06:22:50.007Z,52.45
2019-01-23T06:25:18.556Z,58.28
2019-01-23T06:27:46.997Z,54.55
2019-01-23T06:30:20.734Z,60.67
2019-01-23T06:32:49.295Z,53.83
2019-01-23T06:35:21.402Z,56.60
2019-01-23T06:37:49.827Z,49.85
2019-01-23T06:40:19.003Z,57.23
2019-01-23T06:42:47.413Z,56.10
2019-01-23T06:45:19.448Z,56.13
2019-01-23T06:47:49.298Z,58.00
2019-01-23T06:50:19.581Z,52.48
2019-01-23T06:52:48.079Z,53.80
2019-01-23T06:55:16.775Z,47.78
2019-01-23T06:57:45.185Z,53.63
2019-01-23T07:00:19.983Z,56.68
2019-01-23T07:02:49.057Z,60.43
2019-01-23T07:05:17.626Z,63.20
2019-01-23T07:07:46.204Z,60.08
2019-01-23T07:10:22.952Z,49.20
2019-01-23T07:12:51.386Z,57.43
2019-01-23T07:15:20.360Z,56.98
2019-01-23T07:17:48.772Z,55.65
2019-01-23T07:20:24.217Z,58.00
2019-01-23T07:22:52.639Z,61.92
2019-01-23T07:25:21.262Z,60.65
2019-01-23T07:27:49.733Z,61.80
2019-01-23T07:30:27.147Z,57.50
2019-01-23T07:32:55.549Z,60.98
2019-01-23T07:35:24.077Z,57.30
2019-01-23T07:37:52.485Z,61.40
2019-01-23T07:40:20.921Z,60.12
2019-01-23T07:42:49.336Z,67.62
2019-01-23T07:45:26.145Z,67.17
2019-01-23T07:47:54.694Z,60.40
2019-01-23T07:50:23.215Z,66.30
2019-01-23T07:52:51.692Z,60.73
2019-01-23T07:55:21.076Z,59.83
2019-01-23T07:57:49.556Z,59.27
2019-01-23T08:00:22.890Z,69.75
2019-01-23T08:02:51.647Z,70.92
2019-01-23T08:05:22.803Z,62.93
2019-01-23T08:07:51.776Z,72.90
2019-01-23T08:10:21.542Z,60.33
2019-01-23T08:12:50.120Z,65.92
2019-01-23T08:15:24.513Z,54.42
2019-01-23T08:17:52.933Z,70.32
2019-01-23T08:20:26.339Z,63.15
2019-01-23T08:22:54.759Z,68.78
2019-01-23T08:25:23.533Z,65.75
2019-01-23T08:27:52.186Z,64.55
2019-01-23T08:30:23.281Z,63.87
2019-01-23T08:32:51.680Z,66.80
2019-01-23T08:35:21.552Z,59.60
2019-01-23T08:37:50.109Z,62.73
2019-01-23T08:40:19.089Z,74.97
2019-01-23T08:42:47.505Z,60.45
2019-01-23T08:45:16.387Z,64.72
2019-01-23T08:47:44.882Z,62.65
2019-01-23T08:50:22.807Z,67.22
2019-01-23T08:52:51.220Z,68.17
2019-01-23T08:55:19.657Z,76.85
2019-01-23T08:57:48.091Z,61.83
2019-01-23T09:00:17.890Z,74.22
2019-01-23T09:02:46.452Z,75.20
2019-01-23T09:05:15.126Z,69.07
2019-01-23T09:07:43.685Z,72.85
2019-01-23T09:10:15.333Z,68.60
2019-01-23T09:12:43.767Z,75.97
2019-01-23T09:15:15.011Z,76.40
2019-01-23T09:17:43.435Z,67.30
2019-01-23T09:20:14.967Z,66.15
2019-01-23T09:22:43.460Z,70.92
2019-01-23T09:25:14.739Z,72.80
2019-01-23T09:27:43.148Z,69.15
2019-01-23T09:30:23.396Z,77.72
2019-01-23T09:33:14.442Z,74.72
2019-01-23T09:35:51.962Z,75.85
2019-01-23T09:38:23.474Z,73.57
2019-01-23T09:41:09.865Z,73.30
2019-01-23T09:44:02.615Z,68.90
2019-01-23T09:46:39.654Z,65.22
2019-01-23T09:49:19.877Z,62.48
2019-01-23T09:52:00.248Z,64.10
2019-01-23T09:54:29.034Z,63.60
2019-01-23T09:56:57.448Z,62.45
2019-01-23T09:59:25.866Z,63.63
2019-01-23T10:01:54.307Z,62.43
2019-01-23T10:04:22.739Z,57.58
2019-01-23T10:06:51.165Z,52.77
2019-01-23T10:09:19.591Z,68.00
2019-01-23T10:11:48.012Z,58.33
2019-01-23T10:14:16.421Z,63.60
2019-01-23T10:16:44.852Z,52.87
2019-01-23T10:19:13.276Z,53.03
2019-01-23T10:21:41.697Z,54.50
2019-01-23T10:24:10.184Z,61.53
2019-01-23T10:26:39.510Z,56.20
2019-01-23T10:29:07.966Z,57.70
2019-01-23T10:31:36.395Z,53.70
2019-01-23T10:34:05.141Z,54.93
2019-01-23T10:36:33.650Z,62.43
2019-01-23T10:39:02.066Z,64.20
2019-01-23T10:41:30.497Z,62.10
2019-01-23T10:43:58.916Z,65.10
2019-01-23T10:46:27.361Z,69.87
2019-01-23T10:48:55.778Z,74.00
2019-01-23T10:51:24.290Z,63.30
2019-01-23T10:53:52.698Z,68.17
2019-01-23T10:56:21.125Z,53.17
2019-01-23T10:58:49.554Z,58.33
2019-01-23T11:01:18.000Z,57.50
2019-01-23T11:03:46.419Z,60.53
2019-01-23T11:06:14.844Z,58.37
2019-01-23T11:08:43.324Z,68.87
2019-01-23T11:11:11.752Z,68.47
2019-01-23T11:13:40.177Z,59.47
2019-01-23T11:16:08.650Z,63.73
2019-01-23T11:18:37.139Z,68.53
2019-01-23T11:21:05.650Z,69.40
2019-01-23T11:23:34.113Z,72.97
2019-01-23T11:26:02.677Z,73.47
2019-01-23T11:28:31.099Z,59.70
2019-01-23T11:30:59.540Z,76.67
2019-01-23T11:33:27.946Z,61.57
2019-01-23T11:35:56.373Z,62.20
2019-01-23T11:38:24.777Z,62.57
2019-01-23T11:40:53.285Z,61.10
2019-01-23T11:43:21.771Z,65.17
2019-01-23T11:45:50.211Z,68.50
2019-01-23T11:48:18.638Z,58.77
2019-01-23T11:50:47.087Z,59.33
2019-01-23T11:53:15.538Z,66.40
2019-01-23T11:55:43.978Z,62.90
2019-01-23T11:58:12.392Z,64.37
2019-01-23T12:00:40.923Z,64.53
2019-01-23T12:03:09.324Z,62.27
2019-01-23T12:05:37.737Z,62.70
2019-01-23T12:08:06.242Z,64.67
2019-01-23T12:10:34.672Z,54.00
2019-01-23T12:13:03.169Z,62.67
2019-01-23T12:15:31.580Z,62.80
2019-01-23T12:18:00.091Z,59.40
2019-01-23T12:20:28.516Z,59.27
2019-01-23T12:23:00.007Z,61.83
2019-01-23T12:25:28.661Z,68.77
2019-01-23T12:27:57.124Z,48.60
2019-01-23T12:30:28.456Z,52.73
2019-01-23T12:32:56.881Z,60.00
2019-01-23T12:35:25.292Z,55.33
2019-01-23T12:37:53.892Z,58.23
2019-01-23T12:40:22.302Z,56.60
2019-01-23T12:42:50.909Z,53.00
2019-01-23T12:45:22.148Z,65.93
2019-01-23T12:47:50.729Z,71.17
2019-01-23T12:50:22.188Z,72.73
2019-01-23T12:52:50.627Z,68.83
2019-01-23T12:55:19.034Z,58.93
2019-01-23T12:57:47.599Z,65.80
2019-01-23T13:00:19.184Z,57.37
2019-01-23T13:02:47.617Z,71.10
2019-01-23T13:05:18.670Z,61.83
2019-01-23T13:07:47.569Z,71.20
2019-01-23T13:10:18.317Z,66.97
2019-01-23T13:12:46.885Z,76.77
2019-01-23T13:15:20.334Z,64.17
2019-01-23T13:17:48.827Z,60.23
2019-01-23T13:20:19.503Z,58.10
2019-01-23T13:22:48.016Z,58.43
2019-01-23T13:25:21.843Z,67.33
2019-01-23T13:27:51.023Z,58.73
2019-01-23T13:30:21.472Z,61.27
2019-01-23T13:32:49.970Z,62.30
2019-01-23T13:35:21.187Z,58.90
2019-01-23T13:37:49.671Z,58.03
2019-01-23T13:40:21.095Z,70.13
2019-01-23T13:42:49.536Z,61.33
2019-01-23T13:45:18.126Z,55.00
2019-01-23T13:47:46.553Z,55.17
2019-01-23T13:50:15.529Z,58.37
2019-01-23T13:52:43.962Z,63.70
2019-01-23T13:55:15.450Z,62.13
2019-01-23T13:57:43.954Z,63.00
2019-01-23T14:00:27.657Z,56.30
2019-01-23T14:02:56.425Z,57.30
2019-01-23T14:05:24.972Z,64.97
2019-01-23T14:07:53.431Z,64.83
2019-01-23T14:10:22.402Z,58.90
2019-01-23T14:12:50.933Z,57.33
2019-01-23T14:15:22.663Z,56.97
2019-01-23T14:17:51.096Z,65.93
2019-01-23T14:20:19.573Z,63.50
2019-01-23T14:22:48.011Z,60.17
2019-01-23T14:25:17.275Z,57.97
2019-01-23T14:27:45.799Z,57.07
2019-01-23T14:30:28.937Z,55.03
2019-01-23T14:32:57.366Z,51.17
2019-01-23T14:35:25.945Z,55.30
2019-01-23T14:38:00.506Z,57.03
2019-01-23T14:40:24.529Z,48.33
2019-01-23T14:42:53.026Z,49.80
2019-01-23T14:45:21.892Z,57.40
2019-01-23T14:47:50.340Z,60.37
2019-01-23T14:50:20.507Z,51.17
2019-01-23T14:52:49.366Z,50.33
2019-01-23T14:55:17.772Z,49.30
2019-01-23T14:57:46.287Z,51.10
2019-01-23T15:00:20.947Z,55.47
2019-01-23T15:02:49.523Z,49.67
2019-01-23T15:05:18.069Z,58.07
2019-01-23T15:07:46.564Z,53.27
2019-01-23T15:10:26.557Z,54.57
2019-01-23T15:12:55.322Z,54.80
2019-01-23T15:15:24.178Z,57.93
2019-01-23T15:17:53.252Z,59.90
2019-01-23T15:20:24.208Z,52.73
2019-01-23T15:22:52.660Z,60.53
2019-01-23T15:25:21.075Z,52.93
2019-01-23T15:27:50.435Z,55.60
2019-01-23T15:30:21.859Z,57.73
2019-01-23T15:32:50.384Z,63.50
2019-01-23T15:35:20.047Z,52.37
2019-01-23T15:37:48.482Z,54.77
2019-01-23T15:40:22.612Z,56.43
2019-01-23T15:42:51.052Z,54.70
2019-01-23T15:45:19.461Z,51.40
2019-01-23T15:47:47.898Z,61.83
2019-01-23T15:50:19.149Z,57.20
2019-01-23T15:52:47.641Z,54.83
2019-01-23T15:55:18.706Z,63.17
2019-01-23T15:57:47.213Z,55.73
2019-01-23T16:00:26.823Z,62.30
2019-01-23T16:02:55.392Z,69.30
2019-01-23T16:05:23.893Z,56.47
2019-01-23T16:07:52.385Z,55.97
2019-01-23T16:10:22.937Z,65.53
2019-01-23T16:12:51.364Z,68.03
2019-01-23T16:15:22.117Z,55.60
2019-01-23T16:17:50.545Z,54.20
2019-01-23T16:20:19.203Z,57.27
2019-01-23T16:22:47.756Z,51.07
2019-01-23T16:25:17.212Z,57.57
2019-01-23T16:27:46.304Z,59.63
2019-01-23T16:30:26.818Z,56.60
2019-01-23T16:32:55.237Z,63.40
2019-01-23T16:35:23.712Z,51.70
2019-01-23T16:37:52.227Z,57.33
2019-01-23T16:40:21.306Z,58.03
2019-01-23T16:42:49.723Z,51.00
2019-01-23T16:45:19.890Z,56.30
2019-01-23T16:47:48.445Z,61.77
2019-01-23T16:50:22.470Z,56.80
2019-01-23T16:52:50.960Z,63.17
2019-01-23T16:55:19.519Z,53.30
2019-01-23T16:57:48.361Z,58.17
2019-01-23T17:00:23.592Z,66.77
2019-01-23T17:02:53.321Z,61.53
2019-01-23T17:05:27.632Z,57.73
2019-01-23T17:07:56.709Z,56.37
2019-01-23T17:10:26.964Z,67.87
2019-01-23T17:12:55.545Z,62.17
2019-01-23T17:15:24.318Z,66.33
2019-01-23T17:17:53.093Z,72.10
2019-01-23T17:20:24.581Z,62.00
2019-01-23T17:22:53.011Z,61.47
2019-01-23T17:25:21.582Z,74.63
2019-01-23T17:27:50.003Z,59.17
2019-01-23T17:30:20.881Z,61.07
2019-01-23T17:32:49.357Z,70.53
2019-01-23T17:35:19.527Z,74.03
2019-01-23T17:37:48.010Z,62.37
2019-01-23T17:40:21.089Z,71.23
2019-01-23T17:42:49.560Z,69.00
2019-01-23T17:45:23.376Z,79.30
2019-01-23T17:47:51.795Z,84.90
2019-01-23T17:50:22.366Z,87.20
2019-01-23T17:52:51.417Z,80.63
2019-01-23T17:55:28.512Z,80.90
2019-01-23T17:57:56.980Z,73.00
2019-01-23T18:00:29.268Z,80.83
2019-01-23T18:02:57.751Z,77.87
2019-01-23T18:05:26.244Z,83.47
2019-01-23T18:07:55.511Z,86.13
2019-01-23T18:10:24.132Z,79.77
2019-01-23T18:12:52.536Z,91.67
2019-01-23T18:15:23.905Z,94.23
2019-01-23T18:17:52.437Z,98.13
2019-01-23T18:20:29.416Z,80.20
2019-01-23T18:22:57.894Z,95.30
2019-01-23T18:25:26.475Z,91.07
2019-01-23T18:27:55.159Z,90.90
2019-01-23T18:30:36.465Z,88.37
2019-01-23T18:33:08.131Z,94.73
2019-01-23T18:35:56.425Z,95.20
2019-01-23T18:38:27.927Z,88.10
2019-01-23T18:41:26.726Z,88.37
2019-01-23T18:44:04.224Z,84.53
2019-01-23T18:46:41.333Z,90.77
2019-01-23T18:49:21.671Z,90.37
2019-01-23T18:51:53.171Z,92.67
2019-01-23T18:54:21.592Z,88.33
2019-01-23T18:56:50.008Z,86.87
2019-01-23T18:59:18.447Z,92.03
2019-01-23T19:01:47.803Z,88.70
2019-01-23T19:04:16.223Z,88.53
2019-01-23T19:06:45.597Z,95.00
2019-01-23T19:09:14.024Z,100.47
2019-01-23T19:11:42.448Z,79.67
2019-01-23T19:14:10.857Z,87.90
2019-01-23T19:16:39.372Z,78.63
2019-01-23T19:19:07.914Z,98.37
2019-01-23T19:21:36.350Z,84.53
2019-01-23T19:24:05.615Z,82.90
2019-01-23T19:26:34.041Z,89.37
2019-01-23T19:29:02.471Z,80.63
2019-01-23T19:31:30.894Z,87.73
2019-01-23T19:33:59.442Z,93.57
2019-01-23T19:36:27.960Z,86.73
2019-01-23T19:38:56.387Z,80.93
2019-01-23T19:41:24.831Z,73.97
2019-01-23T19:43:53.248Z,94.17
2019-01-23T19:46:21.664Z,82.37
2019-01-23T19:48:50.156Z,77.27
2019-01-23T19:51:18.610Z,83.10
2019-01-23T19:53:47.023Z,83.23
2019-01-23T19:56:15.471Z,83.50
2019-01-23T19:58:44.162Z,81.43
2019-01-23T20:01:12.596Z,79.53
2019-01-23T20:03:41.027Z,87.93
2019-01-23T20:06:09.466Z,78.57
2019-01-23T20:08:37.889Z,82.83
2019-01-23T20:11:06.461Z,84.00
2019-01-23T20:13:34.878Z,87.47
2019-01-23T20:16:03.407Z,82.47
2019-01-23T20:18:31.826Z,79.80
2019-01-23T20:21:00.596Z,73.37
2019-01-23T20:23:29.073Z,69.77
2019-01-23T20:25:57.500Z,81.33
2019-01-23T20:28:25.923Z,91.43
2019-01-23T20:30:54.393Z,74.53
2019-01-23T20:33:27.994Z,72.83
2019-01-23T20:35:52.951Z,64.33
2019-01-23T20:38:21.353Z,79.60
2019-01-23T20:40:50.749Z,76.33
2019-01-23T20:43:19.174Z,80.03
2019-01-23T20:45:47.597Z,85.63
2019-01-23T20:48:16.023Z,80.13
2019-01-23T20:50:44.443Z,76.60
2019-01-23T20:53:12.947Z,66.30
2019-01-23T20:55:41.705Z,63.37
2019-01-23T20:58:10.586Z,75.37
2019-01-23T21:00:39.265Z,78.27
2019-01-23T21:03:07.763Z,84.67
2019-01-23T21:05:36.237Z,84.83
2019-01-23T21:08:04.836Z,90.53
2019-01-23T21:10:33.261Z,81.97
2019-01-23T21:13:01.680Z,81.07
2019-01-23T21:15:31.107Z,86.10
2019-01-23T21:17:59.642Z,78.77
2019-01-23T21:20:29.213Z,80.33
2019-01-23T21:22:57.637Z,85.00
2019-01-23T21:25:26.077Z,86.47
2019-01-23T21:27:55.486Z,79.97
2019-01-23T21:30:27.967Z,82.50
2019-01-23T21:32:56.469Z,79.70
2019-01-23T21:35:24.961Z,97.33
2019-01-23T21:37:53.444Z,88.70
2019-01-23T21:40:29.832Z,83.10
2019-01-23T21:42:58.262Z,94.43
2019-01-23T21:45:26.837Z,101.37
2019-01-23T21:47:55.285Z,92.23
2019-01-23T21:50:25.253Z,88.87
2019-01-23T21:52:53.835Z,82.30
2019-01-23T21:55:23.781Z,95.23
2019-01-23T21:57:52.350Z,81.03
2019-01-23T22:00:35.401Z,85.60
2019-01-23T22:03:06.172Z,91.83
2019-01-23T22:05:34.671Z,91.70
2019-01-23T22:08:03.189Z,89.27
2019-01-23T22:10:31.615Z,92.90
2019-01-23T22:13:00.036Z,93.90
2019-01-23T22:15:30.393Z,96.13
2019-01-23T22:17:58.898Z,83.07
2019-01-23T22:20:27.757Z,95.43
2019-01-23T22:22:56.189Z,86.50
2019-01-23T22:25:25.562Z,84.83
2019-01-23T22:27:54.443Z,88.17
2019-01-23T22:30:43.727Z,84.27
2019-01-23T22:33:12.225Z,91.23
2019-01-23T22:35:40.642Z,78.80
2019-01-23T22:38:09.073Z,100.87
2019-01-23T22:40:37.484Z,87.73
2019-01-23T22:43:05.989Z,86.83
2019-01-23T22:45:34.438Z,89.83
2019-01-23T22:48:02.856Z,90.97
2019-01-23T22:50:31.297Z,83.45
2019-01-23T22:53:00.393Z,99.47
2019-01-23T22:55:29.061Z,74.27
2019-01-23T22:57:57.510Z,104.33
2019-01-23T23:00:30.651Z,98.13
2019-01-23T23:02:59.552Z,82.47
2019-01-23T23:05:47.409Z,81.43
2019-01-23T23:08:15.889Z,111.90
2019-01-23T23:10:44.438Z,97.08
2019-01-23T23:13:13.172Z,86.67
2019-01-23T23:15:41.584Z,89.57
2019-01-23T23:18:10.174Z,79.50
2019-01-23T23:20:38.604Z,88.67
2019-01-23T23:23:07.106Z,84.43
2019-01-23T23:25:35.520Z,90.07
2019-01-23T23:28:04.097Z,93.23
2019-01-23T23:30:52.183Z,84.70
2019-01-23T23:33:20.623Z,79.80
2019-01-23T23:35:49.043Z,81.50
2019-01-23T23:38:17.475Z,86.05
2019-01-23T23:40:46.036Z,95.67
2019-01-23T23:43:14.495Z,92.45
2019-01-23T23:46:02.237Z,85.67
2019-01-23T23:48:30.670Z,90.87
2019-01-23T23:50:59.167Z,81.50
2019-01-23T23:53:27.621Z,85.90
2019-01-23T23:55:56.059Z,87.33
2019-01-23T23:58:24.484Z,83.53
